Greig, New York
Current Conditions -  °F | °C
As of 4:53 PM on Thursday 23 Oct 2014 (Local Time) from KRME Reporting Station
Light Rain Light Rain  
Wind Chill: 44°   Ceiling: 2100
Heat Index: 47°   Visibility: 10mi
Dew Point: 43°   Wind: 7mph
Humidity: 86%   Direction: 330°NNW
Pressure: 29.92"   Gusts: NA
Location:  43.68°N, 75.35°W
Report Text: KRME 232053Z 33006KT 10SM -RA OVC021 08/06 A2992 RMK AO2 SLP132 P0003 60005 T00830061 56000
Loading
Personal Weather Stations






























Interactive Weather Map
Tropical Storm Tracking
New forecast layout! Learn more

10-Day Weather Forecast

Advertisements
Track Severe Weather on mobile